Time;durP1;ratioP1;P1;durP2;ratioP2;P2;SDS_P1;SDS_P2;PMS_P1;PMS_P2;Temp;Humidity;BMP_temperature;BMP_pressure;BME280_temperature;BME280_humidity;BME280_pressure;Samples;Min_cycle;Max_cycle;Signal;HPM_P1;HPM_P2
2023/01/23 00:00:15;;;;;;;68.15;28.90;;;;;;;;;;6151205;23;20153;-42
2023/01/23 00:02:43;;;;;;;71.22;29.50;;;;;;;;;;6139414;23;20441;-43
2023/01/23 00:05:11;;;;;;;72.75;30.38;;;;;;;;;;6154134;23;20043;-41
2023/01/23 00:07:39;;;;;;;71.95;30.10;;;;;;;;;;6147712;23;20035;-41
2023/01/23 00:10:07;;;;;;;68.47;28.77;;;;;;;;;;6155125;23;20020;-41
2023/01/23 00:12:34;;;;;;;70.65;30.10;;;;;;;;;;6142402;23;20165;-41
2023/01/23 00:15:04;;;;;;;68.68;29.25;;;;;;;;;;6154746;23;20100;-41
2023/01/23 00:17:33;;;;;;;71.05;29.17;;;;;;;;;;6148105;23;20028;-41
2023/01/23 00:20:07;;;;;;;69.78;27.80;;;;;;;;;;6152866;23;20055;-40
2023/01/23 00:22:35;;;;;;;70.70;28.87;;;;;;;;;;6151539;23;20107;-43
2023/01/23 00:25:03;;;;;;;60.75;27.05;;;;;;;;;;6150069;23;20017;-42
2023/01/23 00:27:38;;;;;;;70.55;28.13;;;;;;;;;;6156757;23;20107;-42
2023/01/23 00:30:09;;;;;;;58.60;27.33;;;;;;;;;;6162229;23;20040;-41
2023/01/23 00:32:37;;;;;;;63.83;27.85;;;;;;;;;;6116483;23;20025;-41
2023/01/23 00:35:05;;;;;;;62.23;27.50;;;;;;;;;;6154765;23;20496;-41
2023/01/23 00:37:32;;;;;;;62.72;27.33;;;;;;;;;;6143154;23;20724;-41
2023/01/23 00:40:00;;;;;;;64.53;26.40;;;;;;;;;;6157282;23;20369;-42
2023/01/23 00:42:28;;;;;;;63.60;27.50;;;;;;;;;;6147726;23;20889;-43
2023/01/23 00:44:56;;;;;;;67.00;28.40;;;;;;;;;;6161407;23;20021;-41
2023/01/23 00:47:25;;;;;;;65.87;25.80;;;;;;;;;;6117760;23;20439;-41
2023/01/23 00:49:54;;;;;;;66.45;27.33;;;;;;;;;;6154170;23;20016;-42
2023/01/23 00:52:21;;;;;;;71.55;26.10;;;;;;;;;;6118599;23;20335;-43
2023/01/23 00:54:49;;;;;;;58.30;25.65;;;;;;;;;;6148514;23;20237;-43
2023/01/23 00:57:17;;;;;;;61.28;26.50;;;;;;;;;;6155714;23;20123;-41
2023/01/23 00:59:45;;;;;;;69.93;27.17;;;;;;;;;;6155600;23;20100;-41
2023/01/23 01:02:13;;;;;;;67.60;26.23;;;;;;;;;;6164604;23;20017;-41
2023/01/23 01:04:41;;;;;;;72.05;27.88;;;;;;;;;;6149084;23;20105;-41
2023/01/23 01:07:13;;;;;;;60.20;25.75;;;;;;;;;;6149461;23;20021;-42
2023/01/23 01:09:41;;;;;;;64.35;27.17;;;;;;;;;;6153020;23;20013;-41
2023/01/23 01:12:09;;;;;;;61.90;24.87;;;;;;;;;;6151876;23;20072;-41
2023/01/23 01:14:37;;;;;;;60.65;26.02;;;;;;;;;;6156321;23;20697;-41
2023/01/23 01:17:04;;;;;;;60.85;26.13;;;;;;;;;;6142511;23;20013;-42
2023/01/23 01:19:32;;;;;;;65.85;27.08;;;;;;;;;;6158413;23;20041;-41
2023/01/23 01:22:01;;;;;;;69.53;28.17;;;;;;;;;;6147861;23;20288;-41
2023/01/23 01:24:29;;;;;;;68.30;25.70;;;;;;;;;;6127103;23;20017;-41
2023/01/23 01:26:57;;;;;;;80.57;27.42;;;;;;;;;;6161729;23;20021;-41
2023/01/23 01:29:25;;;;;;;74.20;27.92;;;;;;;;;;6157524;23;20040;-42
2023/01/23 01:31:53;;;;;;;72.15;29.42;;;;;;;;;;6156219;23;20021;-42
2023/01/23 01:34:20;;;;;;;70.22;28.17;;;;;;;;;;6147786;23;20458;-42
2023/01/23 01:36:50;;;;;;;71.80;29.27;;;;;;;;;;6156066;23;20100;-40
2023/01/23 01:39:19;;;;;;;78.65;28.25;;;;;;;;;;6123485;23;20021;-42
2023/01/23 01:41:47;;;;;;;71.47;29.60;;;;;;;;;;6154732;23;20021;-41
2023/01/23 01:44:17;;;;;;;78.90;29.05;;;;;;;;;;6146133;23;20076;-43
2023/01/23 01:46:45;;;;;;;71.28;30.02;;;;;;;;;;6158857;23;20075;-41
2023/01/23 01:49:15;;;;;;;70.73;27.67;;;;;;;;;;6148455;23;20056;-41
2023/01/23 01:51:45;;;;;;;78.05;29.00;;;;;;;;;;6150125;23;20040;-40
2023/01/23 01:54:16;;;;;;;72.03;27.08;;;;;;;;;;6159500;23;20017;-41
2023/01/23 01:56:48;;;;;;;70.80;27.83;;;;;;;;;;6152369;23;20048;-42
2023/01/23 01:59:17;;;;;;;73.68;27.10;;;;;;;;;;6152723;23;20092;-41
2023/01/23 02:01:46;;;;;;;76.00;27.20;;;;;;;;;;6153216;23;20514;-41
2023/01/23 02:04:15;;;;;;;65.25;27.23;;;;;;;;;;6153149;23;20359;-44
2023/01/23 02:06:43;;;;;;;67.60;28.05;;;;;;;;;;6154715;23;20075;-41
2023/01/23 02:09:17;;;;;;;64.38;25.95;;;;;;;;;;6142987;23;20033;-41
2023/01/23 02:11:46;;;;;;;65.65;27.75;;;;;;;;;;6155478;23;20428;-41
2023/01/23 02:14:14;;;;;;;63.27;24.40;;;;;;;;;;6127599;23;20575;-43
2023/01/23 02:16:45;;;;;;;67.32;24.83;;;;;;;;;;6156130;23;20013;-41
2023/01/23 02:19:18;;;;;;;59.72;25.38;;;;;;;;;;6156646;23;20017;-42
2023/01/23 02:21:47;;;;;;;61.10;25.13;;;;;;;;;;6151175;23;20091;-42
2023/01/23 02:24:21;;;;;;;62.70;25.00;;;;;;;;;;6161452;23;20076;-42
2023/01/23 02:26:51;;;;;;;59.40;24.67;;;;;;;;;;6155293;23;20024;-41
2023/01/23 02:29:19;;;;;;;66.57;24.88;;;;;;;;;;6129272;23;20025;-42
2023/01/23 02:31:48;;;;;;;66.82;27.05;;;;;;;;;;6152365;23;20017;-41
2023/01/23 02:34:16;;;;;;;73.68;26.95;;;;;;;;;;6153122;23;20696;-42
2023/01/23 02:36:45;;;;;;;66.38;25.27;;;;;;;;;;6137009;23;20580;-41
2023/01/23 02:39:14;;;;;;;66.73;25.90;;;;;;;;;;6164172;23;20013;-42
2023/01/23 02:41:47;;;;;;;79.95;27.50;;;;;;;;;;6150618;23;20225;-43
2023/01/23 02:44:17;;;;;;;66.70;26.10;;;;;;;;;;6149220;23;20347;-41
2023/01/23 02:46:45;;;;;;;68.97;25.35;;;;;;;;;;6160439;23;20017;-40
2023/01/23 02:49:13;;;;;;;67.78;25.30;;;;;;;;;;6153902;23;20435;-43
2023/01/23 02:51:40;;;;;;;72.47;27.67;;;;;;;;;;6147297;23;20424;-43
2023/01/23 02:54:08;;;;;;;67.97;25.33;;;;;;;;;;6162776;23;20406;-41
2023/01/23 02:56:38;;;;;;;77.38;25.35;;;;;;;;;;6150677;23;20412;-41
2023/01/23 03:01:56;;;;;;;72.22;26.08;;;;;;;;;;6153886;23;20424;-42
2023/01/23 03:04:24;;;;;;;63.80;23.97;;;;;;;;;;6151318;23;20261;-41
2023/01/23 03:06:51;;;;;;;65.28;23.98;;;;;;;;;;6157748;23;20511;-41
2023/01/23 03:09:19;;;;;;;61.55;24.20;;;;;;;;;;6148799;23;20021;-41
2023/01/23 03:11:47;;;;;;;65.10;24.25;;;;;;;;;;6151390;23;20294;-42
2023/01/23 03:14:16;;;;;;;57.15;22.33;;;;;;;;;;6154398;23;20025;-41
2023/01/23 03:16:49;;;;;;;68.40;25.57;;;;;;;;;;6150589;23;20328;-41
2023/01/23 03:19:22;;;;;;;61.53;23.42;;;;;;;;;;6155920;23;20016;-41
2023/01/23 03:21:50;;;;;;;72.90;25.73;;;;;;;;;;6157746;23;20017;-42
2023/01/23 03:24:25;;;;;;;72.60;24.70;;;;;;;;;;6157287;23;20383;-41
2023/01/23 03:26:52;;;;;;;68.50;24.30;;;;;;;;;;6148898;23;20013;-42
2023/01/23 03:32:07;;;;;;;73.32;24.20;;;;;;;;;;6156771;23;20021;-41
2023/01/23 03:34:36;;;;;;;65.35;25.67;;;;;;;;;;6147243;23;20021;-42
2023/01/23 03:37:06;;;;;;;74.30;24.50;;;;;;;;;;6155994;23;20013;-43
2023/01/23 03:42:20;;;;;;;64.90;24.97;;;;;;;;;;6126222;23;20021;-41
2023/01/23 03:44:47;;;;;;;71.07;24.55;;;;;;;;;;6128630;23;20322;-42
2023/01/23 03:47:15;;;;;;;73.57;26.77;;;;;;;;;;6158831;23;20104;-42
2023/01/23 03:49:44;;;;;;;80.43;27.88;;;;;;;;;;6153853;23;20048;-40
2023/01/23 03:52:12;;;;;;;76.65;25.50;;;;;;;;;;6157206;23;20087;-40
2023/01/23 03:54:41;;;;;;;70.83;24.47;;;;;;;;;;6155380;23;20294;-43
2023/01/23 03:57:08;;;;;;;54.25;20.45;;;;;;;;;;6155063;23;20067;-41
2023/01/23 03:59:36;;;;;;;57.83;21.10;;;;;;;;;;6152617;23;20680;-41
2023/01/23 04:02:04;;;;;;;62.75;21.25;;;;;;;;;;6154562;23;20032;-41
2023/01/23 04:04:32;;;;;;;56.42;20.65;;;;;;;;;;6156751;23;20021;-41
2023/01/23 04:07:01;;;;;;;48.73;18.13;;;;;;;;;;6155051;23;20030;-41
2023/01/23 04:09:29;;;;;;;46.85;18.90;;;;;;;;;;6150112;23;20021;-42
2023/01/23 04:11:58;;;;;;;45.17;16.35;;;;;;;;;;6159424;23;20017;-41
2023/01/23 04:14:29;;;;;;;46.80;15.55;;;;;;;;;;6148236;23;20526;-41
2023/01/23 04:16:58;;;;;;;54.58;17.50;;;;;;;;;;6155207;23;20464;-41
2023/01/23 04:19:25;;;;;;;50.37;19.40;;;;;;;;;;6159653;23;20016;-41
2023/01/23 04:21:54;;;;;;;49.00;17.92;;;;;;;;;;6154265;23;20356;-41
2023/01/23 04:24:25;;;;;;;52.03;17.45;;;;;;;;;;6157888;23;20017;-42
2023/01/23 04:26:53;;;;;;;52.85;18.35;;;;;;;;;;6144967;23;20013;-41
2023/01/23 04:29:21;;;;;;;50.90;19.52;;;;;;;;;;6153173;23;20025;-41
2023/01/23 04:31:48;;;;;;;52.00;18.70;;;;;;;;;;6151080;23;20430;-43
2023/01/23 04:34:16;;;;;;;56.90;20.23;;;;;;;;;;6153580;23;20013;-42
2023/01/23 04:36:44;;;;;;;56.08;18.67;;;;;;;;;;6151714;23;20393;-41
2023/01/23 04:39:11;;;;;;;48.03;17.77;;;;;;;;;;6156630;23;20079;-41
2023/01/23 04:41:40;;;;;;;44.78;15.65;;;;;;;;;;6155350;23;20017;-41
2023/01/23 04:44:21;;;;;;;49.33;17.40;;;;;;;;;;6159320;23;20419;-42
2023/01/23 04:46:49;;;;;;;41.25;15.43;;;;;;;;;;6156284;23;20382;-41
2023/01/23 04:49:17;;;;;;;53.33;16.80;;;;;;;;;;6123341;23;20025;-43
2023/01/23 04:51:46;;;;;;;50.30;17.20;;;;;;;;;;6156476;23;20041;-43
2023/01/23 04:54:18;;;;;;;57.22;17.08;;;;;;;;;;6159815;23;20032;-42
2023/01/23 04:56:47;;;;;;;51.67;17.57;;;;;;;;;;6147802;23;20021;-41
2023/01/23 04:59:16;;;;;;;51.83;19.00;;;;;;;;;;6159672;23;20024;-41
2023/01/23 05:01:44;;;;;;;54.58;19.55;;;;;;;;;;6157136;23;20055;-43
2023/01/23 05:04:13;;;;;;;54.78;19.05;;;;;;;;;;6141232;23;20118;-42
2023/01/23 05:06:41;;;;;;;48.70;18.27;;;;;;;;;;6157970;23;20025;-41
2023/01/23 05:09:08;;;;;;;54.40;17.97;;;;;;;;;;6147053;23;20059;-41
2023/01/23 05:11:36;;;;;;;51.65;19.92;;;;;;;;;;6158320;23;20052;-42
2023/01/23 05:14:05;;;;;;;56.90;17.95;;;;;;;;;;6152778;23;20017;-41
2023/01/23 05:16:33;;;;;;;52.88;18.45;;;;;;;;;;6153845;23;20013;-42
2023/01/23 05:19:00;;;;;;;48.58;17.30;;;;;;;;;;6147270;23;20475;-41
2023/01/23 05:21:29;;;;;;;49.53;17.30;;;;;;;;;;6161941;23;20020;-44
2023/01/23 05:23:56;;;;;;;46.20;17.08;;;;;;;;;;6145392;23;20095;-41
2023/01/23 05:26:24;;;;;;;43.42;16.67;;;;;;;;;;6153441;23;20492;-43
2023/01/23 05:28:51;;;;;;;51.97;17.02;;;;;;;;;;6124844;23;20499;-43
2023/01/23 05:31:20;;;;;;;48.70;17.10;;;;;;;;;;6131102;23;20444;-43
2023/01/23 05:33:49;;;;;;;51.93;15.90;;;;;;;;;;6138249;23;20424;-41
2023/01/23 05:36:16;;;;;;;52.25;17.42;;;;;;;;;;6157440;23;20020;-41
2023/01/23 05:38:45;;;;;;;51.10;18.38;;;;;;;;;;6151530;23;20013;-41
2023/01/23 05:41:12;;;;;;;53.47;17.42;;;;;;;;;;6154489;23;20422;-42
2023/01/23 05:43:40;;;;;;;49.95;17.17;;;;;;;;;;6144576;23;20057;-41
2023/01/23 05:46:08;;;;;;;51.00;18.30;;;;;;;;;;6152477;23;20032;-41
2023/01/23 05:48:40;;;;;;;49.78;18.83;;;;;;;;;;6127867;23;20025;-42
2023/01/23 05:51:08;;;;;;;51.75;17.80;;;;;;;;;;6153145;23;20120;-41
2023/01/23 05:53:35;;;;;;;51.72;17.42;;;;;;;;;;6151223;23;20017;-40
2023/01/23 05:56:05;;;;;;;54.45;16.10;;;;;;;;;;6152363;23;20070;-42
2023/01/23 05:58:32;;;;;;;52.47;17.73;;;;;;;;;;6154571;23;20096;-41
2023/01/23 06:01:01;;;;;;;47.03;17.13;;;;;;;;;;6125196;23;20750;-41
2023/01/23 06:03:29;;;;;;;48.75;17.92;;;;;;;;;;6129412;23;20024;-41
2023/01/23 06:06:00;;;;;;;44.67;16.08;;;;;;;;;;6143485;23;20310;-45
2023/01/23 06:08:27;;;;;;;51.58;17.13;;;;;;;;;;6157103;23;20112;-42
2023/01/23 06:11:00;;;;;;;46.33;16.77;;;;;;;;;;6152725;23;20021;-41
2023/01/23 06:13:28;;;;;;;55.13;18.02;;;;;;;;;;6151080;23;20205;-41
2023/01/23 06:15:56;;;;;;;50.13;17.52;;;;;;;;;;6152524;23;20452;-45
2023/01/23 06:18:25;;;;;;;50.55;16.88;;;;;;;;;;6154856;23;20508;-41
2023/01/23 06:20:58;;;;;;;53.97;17.77;;;;;;;;;;6157837;23;20021;-41
2023/01/23 06:23:27;;;;;;;48.73;17.00;;;;;;;;;;6157429;23;20351;-41
2023/01/23 06:25:58;;;;;;;45.15;15.95;;;;;;;;;;6145229;23;20095;-42
2023/01/23 06:28:26;;;;;;;46.50;17.02;;;;;;;;;;6156270;23;20051;-42
2023/01/23 06:30:59;;;;;;;53.55;16.70;;;;;;;;;;6153554;23;20803;-42
2023/01/23 06:33:27;;;;;;;45.35;17.05;;;;;;;;;;6148577;23;20025;-41
2023/01/23 06:35:57;;;;;;;47.30;17.67;;;;;;;;;;6152758;23;20486;-41
2023/01/23 06:38:26;;;;;;;51.22;16.90;;;;;;;;;;6148318;23;20021;-42
2023/01/23 06:40:54;;;;;;;49.90;17.45;;;;;;;;;;6157196;23;20079;-41
2023/01/23 06:43:22;;;;;;;55.88;18.48;;;;;;;;;;6149347;23;20017;-41
2023/01/23 06:45:50;;;;;;;50.58;18.02;;;;;;;;;;6155131;23;20482;-41
2023/01/23 06:48:18;;;;;;;51.27;17.37;;;;;;;;;;6160661;23;20044;-41
2023/01/23 06:50:46;;;;;;;47.17;17.15;;;;;;;;;;6143760;23;20017;-45
2023/01/23 06:53:14;;;;;;;49.25;17.33;;;;;;;;;;6150440;23;20009;-41
2023/01/23 06:55:43;;;;;;;58.65;17.05;;;;;;;;;;6148670;23;20104;-41
2023/01/23 06:58:11;;;;;;;46.80;16.67;;;;;;;;;;6127254;23;20023;-43
2023/01/23 07:00:39;;;;;;;54.70;16.90;;;;;;;;;;6150364;23;20020;-43
2023/01/23 07:03:07;;;;;;;50.33;18.10;;;;;;;;;;6143457;23;20013;-40
2023/01/23 07:05:38;;;;;;;54.92;18.65;;;;;;;;;;6153870;23;20344;-41
2023/01/23 07:08:06;;;;;;;55.47;19.55;;;;;;;;;;6155521;23;20020;-42
2023/01/23 07:10:33;;;;;;;55.72;18.67;;;;;;;;;;6148703;23;20051;-41
2023/01/23 07:13:02;;;;;;;58.57;19.60;;;;;;;;;;6147568;23;20047;-41
2023/01/23 07:15:30;;;;;;;52.00;17.70;;;;;;;;;;6147735;23;20298;-41
2023/01/23 07:17:58;;;;;;;58.50;18.80;;;;;;;;;;6147100;23;20037;-41
2023/01/23 07:20:26;;;;;;;59.33;20.20;;;;;;;;;;6150363;23;20071;-41
2023/01/23 07:22:54;;;;;;;61.03;19.63;;;;;;;;;;6150338;23;20025;-41
2023/01/23 07:25:40;;;;;;;63.17;18.77;;;;;;;;;;6150674;23;20120;-41
2023/01/23 07:28:09;;;;;;;58.75;20.98;;;;;;;;;;6159634;23;20052;-41
2023/01/23 07:30:37;;;;;;;59.25;19.48;;;;;;;;;;6148203;23;20040;-41
2023/01/23 07:33:04;;;;;;;62.17;20.55;;;;;;;;;;6157094;23;20329;-43
2023/01/23 07:35:32;;;;;;;50.90;19.23;;;;;;;;;;6147795;23;20017;-42
2023/01/23 07:38:02;;;;;;;58.97;19.27;;;;;;;;;;6158033;23;20017;-41
2023/01/23 07:40:29;;;;;;;60.13;19.77;;;;;;;;;;6150729;23;20013;-43
2023/01/23 07:42:57;;;;;;;54.47;19.25;;;;;;;;;;6154555;23;20463;-41
2023/01/23 07:45:30;;;;;;;53.97;20.00;;;;;;;;;;6152774;23;20096;-42
2023/01/23 07:47:58;;;;;;;50.40;19.70;;;;;;;;;;6161225;23;20060;-44
2023/01/23 07:50:26;;;;;;;51.00;18.07;;;;;;;;;;6146958;23;20076;-41
2023/01/23 07:52:54;;;;;;;59.13;18.75;;;;;;;;;;6155463;23;20107;-41
2023/01/23 07:55:23;;;;;;;46.78;18.83;;;;;;;;;;6149689;23;20537;-42
2023/01/23 07:57:51;;;;;;;55.17;19.13;;;;;;;;;;6146137;23;20025;-42
2023/01/23 08:00:19;;;;;;;59.25;19.00;;;;;;;;;;6155788;23;20080;-41
2023/01/23 08:02:52;;;;;;;56.10;18.70;;;;;;;;;;6147297;23;20017;-41
2023/01/23 08:05:20;;;;;;;61.47;20.65;;;;;;;;;;6124446;23;20720;-42
2023/01/23 08:07:48;;;;;;;58.33;20.67;;;;;;;;;;6146745;23;20063;-42
2023/01/23 08:10:19;;;;;;;60.35;21.05;;;;;;;;;;6155801;23;20402;-41
2023/01/23 08:12:49;;;;;;;54.45;19.08;;;;;;;;;;6151552;23;20685;-41
2023/01/23 08:15:17;;;;;;;53.53;17.83;;;;;;;;;;6148611;23;20013;-43
2023/01/23 08:17:46;;;;;;;48.80;18.67;;;;;;;;;;6153219;23;20031;-41
2023/01/23 08:20:15;;;;;;;59.20;20.85;;;;;;;;;;6150105;23;20266;-42
2023/01/23 08:22:43;;;;;;;55.63;19.13;;;;;;;;;;6148232;23;20404;-41
2023/01/23 08:25:11;;;;;;;55.58;19.60;;;;;;;;;;6155007;23;20387;-41
2023/01/23 08:27:39;;;;;;;55.70;19.63;;;;;;;;;;6144397;23;20031;-44
2023/01/23 08:30:08;;;;;;;49.55;18.08;;;;;;;;;;6156768;23;20881;-42
2023/01/23 08:32:36;;;;;;;50.88;18.25;;;;;;;;;;6146589;23;20072;-41
2023/01/23 08:35:06;;;;;;;50.28;20.33;;;;;;;;;;6154715;23;20021;-42
2023/01/23 08:37:35;;;;;;;60.85;19.77;;;;;;;;;;6161849;23;20032;-41
2023/01/23 08:40:03;;;;;;;60.63;19.40;;;;;;;;;;6147653;23;20021;-41
2023/01/23 08:42:31;;;;;;;52.08;18.50;;;;;;;;;;6154976;23;20454;-44
2023/01/23 08:44:59;;;;;;;54.53;20.25;;;;;;;;;;6154259;23;20013;-40
2023/01/23 08:47:27;;;;;;;59.53;20.20;;;;;;;;;;6147137;23;20117;-41
2023/01/23 08:49:55;;;;;;;58.88;20.10;;;;;;;;;;6161353;23;20064;-46
2023/01/23 08:52:22;;;;;;;58.37;20.77;;;;;;;;;;6151301;23;20021;-43
2023/01/23 08:54:51;;;;;;;50.05;19.05;;;;;;;;;;6151168;23;20009;-41
2023/01/23 08:57:19;;;;;;;46.03;18.73;;;;;;;;;;6160014;23;20482;-41
2023/01/23 08:59:47;;;;;;;44.72;16.88;;;;;;;;;;6144054;23;20059;-41
2023/01/23 09:02:15;;;;;;;50.97;19.00;;;;;;;;;;6160437;23;20530;-40
2023/01/23 09:04:43;;;;;;;46.00;18.10;;;;;;;;;;6156391;23;20096;-43
2023/01/23 09:07:10;;;;;;;52.38;19.48;;;;;;;;;;6158256;23;20037;-42
2023/01/23 09:09:38;;;;;;;51.88;18.73;;;;;;;;;;6122508;23;20053;-41
2023/01/23 09:12:08;;;;;;;38.22;16.88;;;;;;;;;;6148631;23;20296;-44
2023/01/23 09:14:35;;;;;;;45.97;16.40;;;;;;;;;;6143131;23;20021;-42
2023/01/23 09:17:04;;;;;;;45.20;17.93;;;;;;;;;;6151534;23;20021;-41
2023/01/23 09:19:32;;;;;;;40.45;17.55;;;;;;;;;;6154649;23;20020;-43
2023/01/23 09:22:00;;;;;;;44.60;16.55;;;;;;;;;;6149102;23;20024;-41
2023/01/23 09:24:29;;;;;;;40.75;16.50;;;;;;;;;;6157531;23;20044;-42
2023/01/23 09:26:57;;;;;;;43.85;16.75;;;;;;;;;;6144912;23;20027;-42
2023/01/23 09:29:26;;;;;;;41.40;16.40;;;;;;;;;;6137947;23;20345;-43
2023/01/23 09:31:55;;;;;;;40.92;17.80;;;;;;;;;;6131918;23;20025;-43
2023/01/23 09:34:23;;;;;;;38.83;16.70;;;;;;;;;;6139177;23;20024;-42
2023/01/23 09:36:50;;;;;;;42.58;17.65;;;;;;;;;;6150538;23;20488;-42
2023/01/23 09:39:19;;;;;;;39.03;16.58;;;;;;;;;;6156956;23;20736;-41
2023/01/23 09:41:48;;;;;;;40.93;16.83;;;;;;;;;;6147475;23;20017;-42
2023/01/23 09:44:18;;;;;;;41.97;17.05;;;;;;;;;;6154631;23;20021;-43
2023/01/23 09:46:49;;;;;;;42.20;17.83;;;;;;;;;;6156615;23;20075;-41
2023/01/23 09:49:20;;;;;;;36.47;15.75;;;;;;;;;;6149819;23;20104;-42
2023/01/23 09:51:55;;;;;;;39.97;17.23;;;;;;;;;;6159259;23;20074;-43
2023/01/23 09:54:29;;;;;;;44.57;18.90;;;;;;;;;;6158380;23;20096;-42
2023/01/23 09:56:58;;;;;;;40.65;17.83;;;;;;;;;;6136986;23;20043;-41
2023/01/23 09:59:29;;;;;;;40.03;18.55;;;;;;;;;;6133654;23;20017;-41
2023/01/23 10:01:58;;;;;;;43.85;18.88;;;;;;;;;;6144777;23;20336;-42
2023/01/23 10:04:26;;;;;;;45.83;18.05;;;;;;;;;;6158820;23;20079;-41
2023/01/23 10:07:13;;;;;;;39.70;16.83;;;;;;;;;;6149637;23;20383;-41
2023/01/23 10:09:46;;;;;;;41.25;18.30;;;;;;;;;;6125706;23;20020;-42
2023/01/23 10:12:25;;;;;;;45.25;18.48;;;;;;;;;;6150390;23;20044;-42
2023/01/23 10:15:02;;;;;;;45.03;18.65;;;;;;;;;;6150343;23;20111;-42
2023/01/23 10:17:38;;;;;;;44.70;17.05;;;;;;;;;;6158066;23;20467;-41
2023/01/23 10:20:18;;;;;;;36.63;16.87;;;;;;;;;;6153805;23;20040;-42
2023/01/23 10:22:50;;;;;;;38.47;16.83;;;;;;;;;;6153507;23;20017;-41
2023/01/23 10:25:23;;;;;;;46.20;17.70;;;;;;;;;;6154960;23;20021;-43
2023/01/23 10:27:51;;;;;;;42.72;16.42;;;;;;;;;;6157284;23;20013;-42
2023/01/23 10:30:21;;;;;;;37.38;16.75;;;;;;;;;;6145521;23;20021;-42
2023/01/23 10:32:51;;;;;;;40.80;16.67;;;;;;;;;;6154931;23;20547;-43
2023/01/23 10:35:22;;;;;;;39.50;16.48;;;;;;;;;;6141841;23;20040;-42
2023/01/23 10:37:51;;;;;;;35.50;16.45;;;;;;;;;;6154707;23;20044;-43
2023/01/23 10:41:12;;;;;;;38.35;17.15;;;;;;;;;;6153059;23;20017;-44
2023/01/23 10:43:11;;;;;;;36.67;15.98;;;;;;;;;;6148504;23;20017;-43
2023/01/23 10:45:40;;;;;;;40.70;15.80;;;;;;;;;;6157654;23;20526;-46
2023/01/23 10:48:38;;;;;;;38.20;15.27;;;;;;;;;;6151334;23;20025;-44
2023/01/23 10:51:23;;;;;;;36.45;14.98;;;;;;;;;;6141136;23;20472;-42
2023/01/23 10:54:01;;;;;;;39.55;17.05;;;;;;;;;;6155204;23;20075;-43
2023/01/23 10:56:34;;;;;;;37.40;15.00;;;;;;;;;;6141425;23;20460;-41
2023/01/23 10:59:06;;;;;;;40.40;16.07;;;;;;;;;;6154536;23;20021;-43
2023/01/23 11:01:35;;;;;;;43.05;17.63;;;;;;;;;;6156987;23;20380;-43
2023/01/23 11:04:17;;;;;;;37.30;16.83;;;;;;;;;;6125505;23;20337;-41
2023/01/23 11:06:59;;;;;;;30.25;16.20;;;;;;;;;;6155172;23;20585;-45
2023/01/23 11:09:27;;;;;;;38.28;16.95;;;;;;;;;;6145311;23;20092;-42
2023/01/23 11:12:02;;;;;;;33.43;16.27;;;;;;;;;;6157090;23;20024;-47
2023/01/23 11:14:30;;;;;;;39.33;16.80;;;;;;;;;;6157578;23;20017;-42
2023/01/23 11:17:02;;;;;;;32.63;16.05;;;;;;;;;;6150733;23;20091;-43
2023/01/23 11:19:33;;;;;;;38.33;17.17;;;;;;;;;;6151991;23;20423;-43
2023/01/23 11:22:03;;;;;;;39.42;15.55;;;;;;;;;;6146748;23;20537;-44
2023/01/23 11:24:33;;;;;;;27.87;13.80;;;;;;;;;;6158198;23;20013;-41
2023/01/23 11:27:17;;;;;;;29.98;13.45;;;;;;;;;;6151657;23;20025;-42
2023/01/23 11:29:52;;;;;;;32.97;14.25;;;;;;;;;;6144664;23;20099;-41
2023/01/23 11:32:21;;;;;;;34.17;14.07;;;;;;;;;;6146593;23;20067;-44
2023/01/23 11:34:51;;;;;;;28.00;13.38;;;;;;;;;;6146899;23;20504;-44
2023/01/23 11:37:21;;;;;;;30.77;13.50;;;;;;;;;;6145267;23;20048;-41
2023/01/23 11:39:50;;;;;;;29.73;13.07;;;;;;;;;;6149637;23;20013;-41
2023/01/23 11:42:19;;;;;;;30.00;13.35;;;;;;;;;;6153123;23;20353;-44
2023/01/23 11:44:49;;;;;;;25.30;11.48;;;;;;;;;;6154322;23;20452;-44
2023/01/23 11:47:31;;;;;;;24.73;11.55;;;;;;;;;;6146413;23;20329;-41
2023/01/23 11:50:08;;;;;;;29.97;11.60;;;;;;;;;;6156760;23;20021;-41
2023/01/23 11:52:41;;;;;;;24.17;10.85;;;;;;;;;;6143975;23;20285;-43
2023/01/23 11:55:14;;;;;;;21.92;10.32;;;;;;;;;;6150124;23;20035;-42
2023/01/23 11:57:47;;;;;;;28.65;11.27;;;;;;;;;;6150726;23;20051;-42
2023/01/23 12:00:22;;;;;;;22.98;10.18;;;;;;;;;;6151234;23;20389;-43
2023/01/23 12:03:02;;;;;;;25.97;11.27;;;;;;;;;;6154373;23;20045;-42
2023/01/23 12:05:45;;;;;;;24.25;11.13;;;;;;;;;;6150804;23;20020;-43
2023/01/23 12:08:19;;;;;;;27.63;10.73;;;;;;;;;;6148517;23;20084;-41
2023/01/23 12:10:54;;;;;;;16.52;6.03;;;;;;;;;;6158907;23;20340;-42
2023/01/23 12:13:33;;;;;;;7.95;2.88;;;;;;;;;;6154953;23;20013;-41
2023/01/23 12:16:08;;;;;;;9.33;2.27;;;;;;;;;;6154472;23;20388;-42
2023/01/23 12:18:40;;;;;;;7.82;2.20;;;;;;;;;;6157343;23;20049;-49
2023/01/23 12:21:11;;;;;;;7.72;2.22;;;;;;;;;;6154935;23;20021;-42
2023/01/23 12:23:50;;;;;;;6.38;2.00;;;;;;;;;;6155348;23;20048;-42
2023/01/23 12:26:21;;;;;;;7.88;2.05;;;;;;;;;;6151884;23;20125;-42
2023/01/23 12:28:59;;;;;;;7.70;2.37;;;;;;;;;;6154014;23;20473;-43
2023/01/23 12:31:36;;;;;;;5.97;1.77;;;;;;;;;;6123881;23;20017;-41
2023/01/23 12:34:10;;;;;;;7.45;2.40;;;;;;;;;;6159266;23;20649;-41
2023/01/23 12:36:46;;;;;;;7.93;2.38;;;;;;;;;;6152828;23;20464;-41
2023/01/23 12:39:47;;;;;;;7.20;2.25;;;;;;;;;;6155611;23;20367;-44
2023/01/23 12:42:17;;;;;;;7.27;2.00;;;;;;;;;;6154472;23;20017;-41
2023/01/23 12:44:49;;;;;;;7.00;2.00;;;;;;;;;;6156017;23;20017;-44
2023/01/23 12:47:18;;;;;;;6.45;1.88;;;;;;;;;;6140158;23;20363;-41
2023/01/23 12:49:49;;;;;;;6.82;2.22;;;;;;;;;;6150850;23;20549;-41
2023/01/23 12:52:21;;;;;;;6.85;1.80;;;;;;;;;;6146607;23;20699;-41
2023/01/23 12:54:54;;;;;;;6.73;2.13;;;;;;;;;;6152821;23;20448;-41
2023/01/23 13:00:29;;;;;;;7.63;1.80;;;;;;;;;;6150181;23;20024;-43
2023/01/23 13:03:03;;;;;;;7.97;2.30;;;;;;;;;;6152202;23;20027;-43
2023/01/23 13:05:34;;;;;;;8.00;2.00;;;;;;;;;;6150122;23;20045;-41
2023/01/23 13:08:07;;;;;;;8.03;1.83;;;;;;;;;;6157100;23;20053;-41
2023/01/23 13:13:29;;;;;;;11.70;3.00;;;;;;;;;;6149709;23;20351;-41
2023/01/23 13:16:04;;;;;;;9.27;2.78;;;;;;;;;;6152264;23;20104;-42
2023/01/23 13:21:59;;;;;;;7.82;2.65;;;;;;;;;;6148325;23;20366;-41
2023/01/23 13:27:20;;;;;;;6.70;2.17;;;;;;;;;;6151308;23;20329;-43
2023/01/23 13:29:50;;;;;;;8.00;2.25;;;;;;;;;;6154493;23;20025;-42
2023/01/23 13:32:20;;;;;;;6.35;1.75;;;;;;;;;;6144166;23;20056;-41
2023/01/23 13:34:48;;;;;;;7.50;1.80;;;;;;;;;;6156212;23;20016;-42
2023/01/23 13:37:49;;;;;;;9.00;1.92;;;;;;;;;;6149515;23;20021;-45
2023/01/23 13:40:22;;;;;;;8.32;2.22;;;;;;;;;;6145502;23;20082;-41
2023/01/23 13:42:51;;;;;;;7.10;1.80;;;;;;;;;;6160702;23;20129;-41
2023/01/23 13:45:26;;;;;;;7.50;1.80;;;;;;;;;;6138679;23;20017;-42
2023/01/23 13:51:24;;;;;;;7.93;1.85;;;;;;;;;;6009423;23;20075;-42
2023/01/23 13:57:16;;;;;;;8.00;2.22;;;;;;;;;;5891421;24;20040;-43
2023/01/23 13:59:58;;;;;;;6.63;1.92;;;;;;;;;;5812313;24;20034;-41
2023/01/23 14:05:42;;;;;;;8.60;2.92;;;;;;;;;;5750392;24;20031;-42
2023/01/23 14:17:38;;;;;;;8.03;2.63;;;;;;;;;;5820679;24;20446;-41
2023/01/23 14:20:22;;;;;;;8.25;2.40;;;;;;;;;;5809562;24;20390;-42
2023/01/23 14:22:57;;;;;;;8.85;3.00;;;;;;;;;;5841285;24;20099;-42
2023/01/23 14:25:25;;;;;;;9.65;3.30;;;;;;;;;;5855610;24;20087;-43
2023/01/23 14:28:02;;;;;;;7.55;2.78;;;;;;;;;;5934947;24;20029;-42
2023/01/23 14:30:30;;;;;;;10.43;3.30;;;;;;;;;;5995687;23;20545;-40
2023/01/23 14:32:58;;;;;;;7.63;2.83;;;;;;;;;;6033650;23;20046;-43
2023/01/23 14:35:28;;;;;;;7.95;2.45;;;;;;;;;;6022907;23;20065;-42
2023/01/23 14:37:57;;;;;;;10.77;2.80;;;;;;;;;;6018158;23;20648;-41
2023/01/23 14:40:26;;;;;;;7.88;2.88;;;;;;;;;;6035033;23;20530;-41
2023/01/23 14:43:06;;;;;;;7.23;2.50;;;;;;;;;;6036599;23;20023;-42
2023/01/23 14:45:35;;;;;;;8.13;3.05;;;;;;;;;;6100406;23;20030;-41
2023/01/23 14:48:07;;;;;;;8.85;2.85;;;;;;;;;;6128225;23;20101;-42
2023/01/23 14:50:36;;;;;;;10.15;3.35;;;;;;;;;;6124209;23;20013;-43
2023/01/23 14:53:04;;;;;;;11.80;3.33;;;;;;;;;;6125777;23;20014;-41
2023/01/23 14:55:34;;;;;;;9.93;3.53;;;;;;;;;;6129405;23;20021;-41
2023/01/23 14:58:03;;;;;;;10.00;3.40;;;;;;;;;;6118617;23;20540;-42
2023/01/23 15:00:31;;;;;;;11.38;3.10;;;;;;;;;;6120857;23;20022;-42
2023/01/23 15:02:59;;;;;;;10.73;3.28;;;;;;;;;;6116840;23;20028;-42
2023/01/23 15:05:28;;;;;;;10.73;3.10;;;;;;;;;;6129572;23;20021;-42
2023/01/23 15:07:58;;;;;;;7.53;2.67;;;;;;;;;;6116252;23;20045;-43
2023/01/23 15:10:26;;;;;;;9.90;2.83;;;;;;;;;;6125965;23;20048;-41
2023/01/23 15:12:56;;;;;;;8.85;2.80;;;;;;;;;;6127039;23;20017;-41
2023/01/23 15:15:25;;;;;;;10.80;2.80;;;;;;;;;;6140274;23;20021;-42
2023/01/23 15:17:53;;;;;;;8.75;3.15;;;;;;;;;;6124314;23;20057;-41